createdAt,value
2019-02-18T05:13:39.152Z,9.93
2019-02-18T05:16:27.048Z,12.33
2019-02-18T05:19:22.971Z,12.33
2019-02-18T05:22:10.416Z,11.63
2019-02-18T05:25:02.489Z,10.13
2019-02-18T05:27:50.665Z,11.23
2019-02-18T05:30:44.926Z,10.13
2019-02-18T05:33:33.049Z,10.77
2019-02-18T05:36:21.237Z,11.00
2019-02-18T05:39:17.475Z,9.23
2019-02-18T05:41:58.130Z,9.47
2019-02-18T05:44:47.593Z,8.63
2019-02-18T10:51:20.000Z,2.60
2019-02-18T11:01:21.838Z,3.30
2019-02-18T11:07:45.084Z,3.80
2019-02-18T11:10:41.518Z,4.00
2019-02-18T11:13:29.265Z,4.97
2019-02-18T11:16:27.033Z,4.60
2019-02-18T11:19:17.715Z,4.73
2019-02-18T11:22:09.273Z,5.37
2019-02-18T11:32:23.026Z,6.77
2019-02-18T11:35:15.975Z,6.40
2019-02-18T11:55:38.945Z,7.57
2019-02-18T11:58:56.782Z,7.87
2019-02-18T12:01:44.821Z,9.20
2019-02-18T12:04:40.691Z,8.83
2019-02-18T12:07:30.350Z,9.67
2019-02-18T12:10:18.707Z,9.60
2019-02-18T12:13:06.909Z,8.93
2019-02-18T12:15:54.867Z,9.67
2019-02-18T12:18:44.428Z,14.30
2019-02-18T12:21:32.639Z,10.87
2019-02-18T12:24:21.003Z,11.73
2019-02-18T12:27:13.957Z,11.73
2019-02-18T12:30:02.398Z,12.33
2019-02-18T12:32:52.185Z,14.50
2019-02-18T12:35:43.654Z,14.17
2019-02-18T12:38:34.997Z,13.03
2019-02-18T12:41:22.892Z,12.47
2019-02-18T12:44:12.049Z,13.43
2019-02-18T12:46:59.985Z,13.63
2019-02-18T12:49:51.093Z,13.60
2019-02-18T12:52:42.095Z,13.83
2019-02-18T12:58:28.686Z,14.30
2019-02-18T13:01:17.324Z,14.13
2019-02-18T13:04:05.451Z,14.23
2019-02-18T13:06:53.542Z,14.87
2019-02-18T13:09:41.963Z,14.77
2019-02-18T13:12:29.917Z,14.90
2019-02-18T13:15:19.099Z,14.77
2019-02-18T13:18:07.161Z,15.23
2019-02-18T13:20:57.353Z,15.73
2019-02-18T13:23:46.380Z,15.63
2019-02-18T13:26:34.471Z,15.97
2019-02-18T13:29:22.655Z,17.07
2019-02-18T13:32:12.025Z,15.90
2019-02-18T13:35:00.282Z,16.13
2019-02-18T13:37:49.852Z,17.47
2019-02-18T13:40:37.871Z,17.07
2019-02-18T13:43:25.981Z,15.67
2019-02-18T13:46:13.824Z,17.67
2019-02-18T13:49:02.553Z,16.50
2019-02-18T13:51:56.405Z,16.40
2019-02-18T13:54:42.730Z,16.37
2019-02-18T13:57:46.132Z,17.90
2019-02-18T14:00:35.365Z,19.60
2019-02-18T14:03:25.317Z,18.23
2019-02-18T14:06:18.531Z,17.17
2019-02-18T14:09:06.945Z,18.17
2019-02-18T14:11:56.069Z,17.10
2019-02-18T14:14:45.340Z,16.97
2019-02-18T14:17:36.256Z,17.90
2019-02-18T14:20:25.207Z,17.83
2019-02-18T14:23:16.007Z,18.00
2019-02-18T14:26:18.492Z,17.67
2019-02-18T14:32:22.640Z,18.53
2019-02-18T14:35:13.371Z,18.37
2019-02-18T14:38:02.793Z,18.87
2019-02-18T14:40:52.270Z,18.03
2019-02-18T14:43:58.000Z,19.10
2019-02-18T14:46:46.133Z,17.90
2019-02-18T14:49:36.115Z,27.13
2019-02-18T14:52:39.951Z,19.57
2019-02-18T14:55:28.665Z,20.63
2019-02-18T14:58:17.315Z,19.97
2019-02-18T15:01:07.654Z,19.43
2019-02-18T15:03:57.109Z,20.50
2019-02-18T15:06:49.556Z,20.13
2019-02-18T15:09:38.340Z,20.83
2019-02-18T15:12:37.550Z,19.23
2019-02-18T15:15:50.033Z,18.63
2019-02-18T15:18:38.547Z,19.80
2019-02-18T15:27:59.468Z,19.87
2019-02-18T15:30:59.577Z,21.10
2019-02-18T15:33:49.064Z,19.47
2019-02-18T15:36:41.351Z,19.77
2019-02-18T15:39:32.292Z,20.27
2019-02-18T15:42:21.577Z,20.07
2019-02-18T15:45:15.966Z,18.63
2019-02-18T15:48:33.175Z,20.17
2019-02-18T15:54:17.314Z,20.33
2019-02-18T15:57:21.724Z,19.40
2019-02-18T16:00:24.577Z,19.53
2019-02-18T16:03:22.771Z,19.30
2019-02-18T16:06:12.817Z,18.20
2019-02-18T16:09:01.483Z,20.97
2019-02-18T16:11:50.109Z,19.40
2019-02-18T16:14:39.413Z,19.07
2019-02-18T16:17:27.814Z,19.83
2019-02-18T16:20:25.471Z,19.47
2019-02-18T16:23:20.548Z,17.80
2019-02-18T16:26:16.668Z,18.20
2019-02-18T16:29:05.053Z,21.57
2019-02-18T16:31:55.179Z,18.97
2019-02-18T16:34:43.206Z,18.60
2019-02-18T16:37:31.190Z,19.67
2019-02-18T16:40:19.910Z,18.77
2019-02-18T16:43:08.979Z,19.10
2019-02-18T16:46:04.916Z,18.20
2019-02-18T16:48:57.622Z,18.37
2019-02-18T16:51:45.742Z,18.20
2019-02-18T16:54:34.829Z,18.23
2019-02-18T16:57:22.847Z,20.47
2019-02-18T17:00:34.583Z,17.27
2019-02-18T17:03:23.583Z,18.67
2019-02-18T17:09:37.211Z,19.07
2019-02-18T17:12:29.915Z,20.83
2019-02-18T17:46:01.624Z,18.50
2019-02-18T17:55:10.982Z,18.50
2019-02-18T17:58:03.019Z,18.73
2019-02-18T18:00:55.885Z,18.10
2019-02-18T18:03:52.103Z,17.97
2019-02-18T18:06:40.991Z,18.27
2019-02-18T18:09:30.004Z,18.03
2019-02-18T18:12:19.000Z,18.13
2019-02-18T18:15:07.079Z,17.17
2019-02-18T18:17:57.096Z,17.40
2019-02-18T18:20:45.631Z,17.00
2019-02-18T18:23:33.536Z,17.30
2019-02-18T18:26:26.375Z,16.30
2019-02-18T18:29:15.205Z,17.07
2019-02-18T18:32:02.969Z,16.50
2019-02-18T18:34:51.950Z,17.20
2019-02-18T18:37:48.244Z,16.77
2019-02-18T18:40:36.798Z,16.13
2019-02-18T18:43:33.431Z,16.97
2019-02-18T18:46:22.213Z,16.37
2019-02-18T18:49:10.904Z,16.67
2019-02-18T18:51:59.903Z,16.97
2019-02-18T18:54:53.284Z,15.97
2019-02-18T18:57:41.629Z,15.77
2019-02-18T19:00:35.815Z,16.57
2019-02-18T19:03:28.524Z,16.00
2019-02-18T19:06:17.017Z,17.43
2019-02-18T19:09:06.147Z,16.40
2019-02-18T19:11:55.777Z,16.03
2019-02-18T19:14:44.610Z,15.67
2019-02-18T19:17:36.422Z,16.80
2019-02-18T19:20:24.846Z,16.07
2019-02-18T19:23:12.569Z,16.83
2019-02-18T19:26:01.404Z,16.47
2019-02-18T19:28:52.110Z,16.40
2019-02-18T19:31:40.518Z,15.80
2019-02-18T19:34:28.973Z,16.57
2019-02-18T19:37:19.658Z,16.40
2019-02-18T19:40:08.542Z,21.33
2019-02-18T19:42:57.328Z,15.50
2019-02-18T19:45:46.023Z,16.50
2019-02-18T19:48:59.946Z,17.00
2019-02-18T19:51:48.880Z,16.73
2019-02-18T19:54:48.068Z,16.43
2019-02-18T19:57:37.448Z,16.17
2019-02-18T20:00:28.181Z,16.30
2019-02-18T20:03:22.304Z,16.17
2019-02-18T20:06:10.844Z,16.60
2019-02-18T20:09:08.643Z,18.80
2019-02-18T20:12:00.211Z,16.43
2019-02-18T20:14:48.937Z,14.80
2019-02-18T20:17:37.224Z,16.73
2019-02-18T20:20:25.846Z,15.47
2019-02-18T20:23:14.054Z,16.03
2019-02-18T20:26:03.033Z,15.60
2019-02-18T20:28:51.480Z,18.37
2019-02-18T20:31:39.598Z,16.13
2019-02-18T20:34:40.522Z,16.40
2019-02-18T20:37:28.979Z,17.13
2019-02-18T20:40:17.803Z,16.87
2019-02-18T20:43:06.475Z,15.87
2019-02-18T20:46:01.881Z,16.83
2019-02-18T20:48:51.714Z,16.67
2019-02-18T20:51:40.520Z,16.67
2019-02-18T20:54:29.343Z,15.53
2019-02-18T20:57:17.963Z,17.37
2019-02-18T21:00:09.649Z,16.67
2019-02-18T21:03:00.418Z,17.10
2019-02-18T21:05:48.839Z,16.13
2019-02-18T21:08:46.161Z,16.20
2019-02-18T21:11:36.152Z,16.27
2019-02-18T21:14:24.554Z,18.57
2019-02-18T21:17:12.266Z,16.43
2019-02-18T21:20:00.431Z,16.40
2019-02-18T21:22:48.646Z,16.43
2019-02-18T21:25:36.608Z,15.87
2019-02-18T21:28:25.125Z,16.13
2019-02-18T21:31:13.422Z,16.40
2019-02-18T21:34:01.697Z,15.93
2019-02-18T21:36:53.345Z,16.10
2019-02-18T21:39:41.947Z,16.60
2019-02-18T21:42:29.921Z,16.70
2019-02-18T21:45:18.237Z,16.23
2019-02-18T21:48:06.321Z,16.57
2019-02-18T21:50:54.448Z,16.17
2019-02-18T21:53:42.994Z,15.67
2019-02-18T21:56:31.092Z,15.03
2019-02-18T21:59:19.286Z,15.57
2019-02-18T22:02:07.859Z,16.43
2019-02-18T22:04:56.180Z,15.43
2019-02-18T22:07:46.373Z,15.60
2019-02-18T22:10:34.742Z,14.83
2019-02-18T22:13:22.829Z,16.53
2019-02-18T22:16:14.222Z,16.17
2019-02-18T22:19:04.137Z,16.03
2019-02-18T22:21:53.548Z,14.80
2019-02-18T22:24:41.201Z,15.73
2019-02-18T22:27:31.117Z,17.30
2019-02-18T22:30:24.879Z,17.23
2019-02-18T22:33:13.549Z,17.13
2019-02-18T22:36:05.094Z,14.23
2019-02-18T22:38:53.569Z,16.17
2019-02-18T22:41:41.819Z,21.70
2019-02-18T22:44:42.122Z,16.00
2019-02-18T22:47:30.150Z,16.37
2019-02-18T22:50:18.465Z,14.50
2019-02-18T22:53:07.999Z,16.00
2019-02-18T22:55:56.961Z,17.47
2019-02-18T22:58:45.465Z,17.13
2019-02-18T23:01:33.088Z,18.67
2019-02-18T23:04:22.094Z,16.20
2019-02-18T23:07:09.789Z,19.23
2019-02-18T23:09:57.358Z,15.07
2019-02-18T23:12:45.467Z,16.87
2019-02-18T23:15:33.321Z,17.70
2019-02-18T23:18:21.243Z,17.23
2019-02-18T23:21:09.969Z,16.57
2019-02-18T23:23:58.533Z,15.53
2019-02-18T23:26:46.773Z,15.87
2019-02-18T23:29:34.847Z,18.20
2019-02-18T23:32:22.675Z,17.90
2019-02-18T23:35:10.752Z,17.03
2019-02-18T23:37:58.862Z,17.17
2019-02-18T23:40:47.721Z,15.47
2019-02-18T23:43:35.393Z,18.17
2019-02-18T23:46:23.492Z,17.43
2019-02-18T23:49:11.628Z,19.00
2019-02-18T23:52:00.647Z,15.43
2019-02-18T23:54:48.748Z,17.83
2019-02-18T23:57:38.737Z,17.60
